Tropical Cyclones
[Index]
Main Index Home Page Stock Weather Photos Extreme Storms Discussion Storm News and Storm Chasing Reports Tropical Cyclones / Hurricanes / Typhoons Weather Data and Links Wild Fires / Bushfires Weather Observation Techniques Weather Picture Catalogue Tornado Pictures and Reports Stock Video Footage and DVDs for sale
Season 2007-2008 Tropical Cyclone DAMAN Track Map
Season 2007-2008 Summaries (Operational Data): [AU] [SIO] [SPAC] [SH]
<<- Previous TC | 2007-2008 Season | Next TC ->>

click for intensity scale information  Lat/long Grid: Show Hide

 Date Labels: Show Hide

Operational Tropical Cyclone Data : JTWC Advisories

Name: DAMAN
Number: 0805

03 Dec 2007 18:00 UTC to 10 Dec 2007 06:00 UTC

    date/time    lat    long     hPa   cat  kts
2007-12-03 18   12.0   174.0W   1009         25          
2007-12-04 00   12.5   177.0W                25          
2007-12-04 06   12.8   178.2W   1004         25          
2007-12-04 12   12.6   179.7W                25          
2007-12-04 18   11.5   179.2    1004         25          
2007-12-05 00   11.9   178.2     997         30          
2007-12-05 02   12.1   177.7     995    1    35          
2007-12-05 06   12.2   177.3     990    1    40          
2007-12-05 12   12.8   176.4     985    2    50          
2007-12-05 18   13.9   175.9     985    2    55          
2007-12-06 00   14.7   175.8     985    2    50          
2007-12-06 06   15.3   175.8     975    2    60          
2007-12-06 12   15.4   176.2     970    3    65          
2007-12-06 18   15.5   176.9     955    3    85          
2007-12-07 00   15.6   177.8     925    4   105          
2007-12-07 06   15.5   178.7     925    4   100          
2007-12-07 12   15.6   179.6     935    4    90          
2007-12-07 18   15.9   179.5W    940    4    90          
2007-12-08 01   16.6   178.0W    950    3    85          
2007-12-08 06   16.9   178.3W    965    3    70          
2007-12-08 12   17.5   177.8W    975    2    60          
2007-12-08 18   17.6   177.9W    985    2    50          
2007-12-09 00   18.1   178.0W    992    1    40          
2007-12-09 06   18.5   178.1W    997         30          
2007-12-09 12   18.8   177.8W                30          
2007-12-09 18   18.8   178.0W                25          
2007-12-10 00   19.7   178.5W                20          
2007-12-10 06   20.0   178.0W   1006         20          
Winds are 10-min average.

Tropical cyclone tracks developed by Michael Bath using operational warnings and advisories and Google Maps.


[Australian Severe Weather index] [Copyright Notice] [Email Contacts] [Search This Site] [Privacy Policy]
Document: tropical_cyclone_daman.htm Updated: 2 May 2017